Poseidon — SVA6091 — position and weather

sailwx.info

Track history (hours):
 
Tides and Currents Weather Stations Pressure Air Temp Water Temp Dewpoint Dewpoint Depression Visibility Wind Speed Wind Dir Waves Ship Positions

Poseidon

Last reported at 2017-Dec-11 11:20 UTC. Time now 2017-Dec-11 17:22 UTC.
Position N 37°57' E 023°36'.

Length 35 m; draft 3.5 m.

Type: Tanker. MMSI: 239869900.

Date/timePositionNaut miles runAvg speedWind from/ knotsBaromVisibWave heightAir tempDewpointWater temp
2017-Dec-11 11:20N 37°57' E 023°36'0 0.1
2017-Dec-11 09:57N 37°57' E 023°36'0 0.0
2017-Dec-10 21:21N 37°57' E 023°36'2 6.2
2017-Dec-10 21:00N 37°56' E 023°35'4 8.2
2017-Dec-10 20:30N 37°52' E 023°32'1 2.0
2017-Dec-10 20:00N 37°51' E 023°32'0 0.0
2017-Dec-10 19:30N 37°51' E 023°32'0 0.1
2017-Dec-10 19:00N 37°51' E 023°32'0 0.3
2017-Dec-10 18:30N 37°51' E 023°32'1 2.5
2017-Dec-10 18:00N 37°52' E 023°31'0 0.3
2017-Dec-10 17:30N 37°52' E 023°31'0 0.0
2017-Dec-10 17:00N 37°52' E 023°31'0 0.0
2017-Dec-10 16:30N 37°52' E 023°31'0 0.0
2017-Dec-10 16:00N 37°52' E 023°31'0 0.0
2017-Dec-10 15:30N 37°52' E 023°31'1 1.4
2017-Dec-10 15:00N 37°53' E 023°31'4 7.9
2017-Dec-10 14:31N 37°56' E 023°34'2 4.5
2017-Dec-10 14:00N 37°57' E 023°36'0 0.0
2017-Dec-10 13:30N 37°57' E 023°36'0 0.0
2017-Dec-09 08:07N 37°57' E 023°36'0 0.7
2017-Dec-09 08:00N 37°57' E 023°36'0 0.0
2017-Dec-09 07:30N 37°57' E 023°36'0 0.0
2017-Dec-09 07:00N 37°57' E 023°36'0 0.0
2017-Dec-08 11:26N 37°57' E 023°36'3 6.2
2017-Dec-08 11:00N 37°58' E 023°33'3 6.2
2017-Dec-08 10:30N 38°00' E 023°35'0 0.2
2017-Dec-08 10:00N 38°00' E 023°35'0 0.0
2017-Dec-08 09:30N 38°00' E 023°35'0 0.0
2017-Dec-08 09:00N 38°00' E 023°35'0 0.0
2017-Dec-08 08:30N 38°00' E 023°35'0 0.0
2017-Dec-08 08:00N 38°00' E 023°35'2 4.6
2017-Dec-08 07:30N 37°59' E 023°33'3 6.7
2017-Dec-08 07:00N 37°56' E 023°34'4 8.5
2017-Dec-08 06:30N 37°52' E 023°31'0 0.6
2017-Dec-08 06:00N 37°52' E 023°31'1 1.0
2017-Dec-08 05:30N 37°52' E 023°32'4 8.2
2017-Dec-08 05:00N 37°56' E 023°34'2 4.2
2017-Dec-08 04:30N 37°57' E 023°36'0 0.0
2017-Dec-07 10:53N 37°57' E 023°36'2 6.1
2017-Dec-07 10:31N 37°56' E 023°34'3 5.9
2017-Dec-07 10:00N 37°53' E 023°33'0 0.2
2017-Dec-07 09:30N 37°53' E 023°32'1 2.9
2017-Dec-07 09:00N 37°53' E 023°31'1 2.3
2017-Dec-07 08:30N 37°54' E 023°32'4 7.9
2017-Dec-07 08:00N 37°57' E 023°35'1 1.3
2017-Dec-07 07:30N 37°57' E 023°35'0 0.0
2017-Dec-07 07:00N 37°57' E 023°35'0 0.0
2017-Dec-07 06:30N 37°57' E 023°35'0 0.6
2017-Dec-07 06:00N 37°57' E 023°35'1 1.4
2017-Dec-07 05:30N 37°57' E 023°36'  
2017-Dec-04 09:10N 37°57' E 023°36'0 2.6
2017-Dec-04 09:00N 37°57' E 023°37'0 0.1
2017-Dec-04 08:30N 37°57' E 023°37'0 0.0
2017-Dec-04 08:00N 37°57' E 023°37'2 4.7
2017-Dec-04 07:30N 37°56' E 023°35'4 7.8
2017-Dec-04 07:00N 37°53' E 023°31'1 2.3
2017-Dec-04 06:30N 37°52' E 023°30'0 0.5
2017-Dec-04 06:00N 37°52' E 023°30'4 8.1
2017-Dec-04 05:30N 37°55' E 023°34'3 6.2
2017-Dec-04 05:00N 37°57' E 023°37'0 0.0
2017-Dec-04 04:30N 37°57' E 023°37'0 0.0
2017-Dec-03 11:04N 37°57' E 023°37'0 0.1
2017-Dec-03 11:00N 37°57' E 023°37'3 6.9
2017-Dec-03 10:30N 37°55' E 023°34'4 7.0
2017-Dec-03 10:01N 37°52' E 023°31'0 0.1
2017-Dec-03 09:31N 37°52' E 023°31'2 3.6
2017-Dec-03 09:00N 37°50' E 023°31'0 0.6
2017-Dec-03 08:31N 37°50' E 023°31'0 0.0
2017-Dec-03 07:59N 37°50' E 023°31'3 5.6
2017-Dec-03 07:30N 37°53' E 023°32'3 6.8
2017-Dec-03 07:00N 37°56' E 023°34'3 6.1
2017-Dec-03 06:30N 37°57' E 023°37'0 0.0
2017-Dec-01 17:25N 37°57' E 023°37'0 0.0
2017-Dec-01 16:05N 37°57' E 023°37'0 0.0
2017-Dec-01 15:59N 37°57' E 023°37'0 0.0
2017-Dec-01 15:18N 37°57' E 023°37'0 0.0
2017-Dec-01 11:58N 37°57' E 023°37'0 0.0
2017-Dec-01 11:29N 37°57' E 023°37'  
Track history (hours):
 
Tides and Currents Weather Stations Pressure Air Temp Water Temp Dewpoint Dewpoint Depression Visibility Wind Speed Wind Dir Waves Ship Positions

Poseidon

Last reported at 2017-Dec-11 11:20 UTC. Time now 2017-Dec-11 17:22 UTC.
Position N 37°57' E 023°36'.

Length 35 m; draft 3.5 m.

Type: Tanker. MMSI: 239869900.

Date/timePositionNaut miles runAvg speedWind from/ knotsBaromVisibWave heightAir tempDewpointWater temp
2017-Dec-11 11:20N 37°57' E 023°36'0 0.1
2017-Dec-11 09:57N 37°57' E 023°36'0 0.0
2017-Dec-10 21:21N 37°57' E 023°36'2 6.2
2017-Dec-10 21:00N 37°56' E 023°35'4 8.2
2017-Dec-10 20:30N 37°52' E 023°32'1 2.0
2017-Dec-10 20:00N 37°51' E 023°32'0 0.0
2017-Dec-10 19:30N 37°51' E 023°32'0 0.1
2017-Dec-10 19:00N 37°51' E 023°32'0 0.3
2017-Dec-10 18:30N 37°51' E 023°32'1 2.5
2017-Dec-10 18:00N 37°52' E 023°31'0 0.3
2017-Dec-10 17:30N 37°52' E 023°31'0 0.0
2017-Dec-10 17:00N 37°52' E 023°31'0 0.0
2017-Dec-10 16:30N 37°52' E 023°31'0 0.0
2017-Dec-10 16:00N 37°52' E 023°31'0 0.0
2017-Dec-10 15:30N 37°52' E 023°31'1 1.4
2017-Dec-10 15:00N 37°53' E 023°31'4 7.9
2017-Dec-10 14:31N 37°56' E 023°34'2 4.5
2017-Dec-10 14:00N 37°57' E 023°36'0 0.0
2017-Dec-10 13:30N 37°57' E 023°36'0 0.0
2017-Dec-09 08:07N 37°57' E 023°36'0 0.7
2017-Dec-09 08:00N 37°57' E 023°36'0 0.0
2017-Dec-09 07:30N 37°57' E 023°36'0 0.0
2017-Dec-09 07:00N 37°57' E 023°36'0 0.0
2017-Dec-08 11:26N 37°57' E 023°36'3 6.2
2017-Dec-08 11:00N 37°58' E 023°33'3 6.2
2017-Dec-08 10:30N 38°00' E 023°35'0 0.2
2017-Dec-08 10:00N 38°00' E 023°35'0 0.0
2017-Dec-08 09:30N 38°00' E 023°35'0 0.0
2017-Dec-08 09:00N 38°00' E 023°35'0 0.0
2017-Dec-08 08:30N 38°00' E 023°35'0 0.0
2017-Dec-08 08:00N 38°00' E 023°35'2 4.6
2017-Dec-08 07:30N 37°59' E 023°33'3 6.7
2017-Dec-08 07:00N 37°56' E 023°34'4 8.5
2017-Dec-08 06:30N 37°52' E 023°31'0 0.6
2017-Dec-08 06:00N 37°52' E 023°31'1 1.0
2017-Dec-08 05:30N 37°52' E 023°32'4 8.2
2017-Dec-08 05:00N 37°56' E 023°34'2 4.2
2017-Dec-08 04:30N 37°57' E 023°36'0 0.0
2017-Dec-07 10:53N 37°57' E 023°36'2 6.1
2017-Dec-07 10:31N 37°56' E 023°34'3 5.9
2017-Dec-07 10:00N 37°53' E 023°33'0 0.2
2017-Dec-07 09:30N 37°53' E 023°32'1 2.9
2017-Dec-07 09:00N 37°53' E 023°31'1 2.3
2017-Dec-07 08:30N 37°54' E 023°32'4 7.9
2017-Dec-07 08:00N 37°57' E 023°35'1 1.3
2017-Dec-07 07:30N 37°57' E 023°35'0 0.0
2017-Dec-07 07:00N 37°57' E 023°35'0 0.0
2017-Dec-07 06:30N 37°57' E 023°35'0 0.6
2017-Dec-07 06:00N 37°57' E 023°35'1 1.4
2017-Dec-07 05:30N 37°57' E 023°36'  
2017-Dec-04 09:10N 37°57' E 023°36'0 2.6
2017-Dec-04 09:00N 37°57' E 023°37'0 0.1
2017-Dec-04 08:30N 37°57' E 023°37'0 0.0
2017-Dec-04 08:00N 37°57' E 023°37'2 4.7
2017-Dec-04 07:30N 37°56' E 023°35'4 7.8
2017-Dec-04 07:00N 37°53' E 023°31'1 2.3
2017-Dec-04 06:30N 37°52' E 023°30'0 0.5
2017-Dec-04 06:00N 37°52' E 023°30'4 8.1
2017-Dec-04 05:30N 37°55' E 023°34'3 6.2
2017-Dec-04 05:00N 37°57' E 023°37'0 0.0
2017-Dec-04 04:30N 37°57' E 023°37'0 0.0
2017-Dec-03 11:04N 37°57' E 023°37'0 0.1
2017-Dec-03 11:00N 37°57' E 023°37'3 6.9
2017-Dec-03 10:30N 37°55' E 023°34'4 7.0
2017-Dec-03 10:01N 37°52' E 023°31'0 0.1
2017-Dec-03 09:31N 37°52' E 023°31'2 3.6
2017-Dec-03 09:00N 37°50' E 023°31'0 0.6
2017-Dec-03 08:31N 37°50' E 023°31'0 0.0
2017-Dec-03 07:59N 37°50' E 023°31'3 5.6
2017-Dec-03 07:30N 37°53' E 023°32'3 6.8
2017-Dec-03 07:00N 37°56' E 023°34'3 6.1
2017-Dec-03 06:30N 37°57' E 023°37'0 0.0
2017-Dec-01 17:25N 37°57' E 023°37'0 0.0
2017-Dec-01 16:05N 37°57' E 023°37'0 0.0
2017-Dec-01 15:59N 37°57' E 023°37'0 0.0
2017-Dec-01 15:18N 37°57' E 023°37'0 0.0
2017-Dec-01 11:58N 37°57' E 023°37'0 0.0
2017-Dec-01 11:29N 37°57' E 023°37'  

Dump ship's entire track history